Terminal Aerodrome Forecast
Issued by NWS

Home | Current Version | Previous Version | Text Only | Print | Product List | Glossary On
Versions: 1 2 3 4 5 6 7 8 9 10 11 12 13 14 15 16
000
FTUS46 KSEW 272346
TAFHQM
TAF
KHQM 272346Z 2800/2824 25012KT P6SM -SHRA SCT020 BKN030 OVC050
      TEMPO 2800/2804 4SM -SHRA BR BKN020 OVC030
     FM280400 26007KT P6SM VCSH SCT025 BKN050
     FM281800 24008KT P6SM SCT030 OVC050=

USA.gov is the U.S. government's official web portal to all federal, state and local government web resources and services.